createdAt,value
2023-01-18T00:01:37.709Z,92625.00
2023-01-18T00:05:41.007Z,92629.00
2023-01-18T00:09:45.325Z,92616.00
2023-01-18T00:13:48.928Z,92618.00
2023-01-18T00:17:52.592Z,92622.00
2023-01-18T00:21:55.753Z,92617.00
2023-01-18T00:26:02.804Z,92618.00
2023-01-18T00:30:06.990Z,92615.00
2023-01-18T00:34:10.031Z,92606.00
2023-01-18T00:38:13.403Z,92601.00
2023-01-18T00:42:35.515Z,92592.00
2023-01-18T00:46:38.360Z,92603.00
2023-01-18T00:50:41.309Z,92593.00
2023-01-18T00:54:44.115Z,92594.00
2023-01-18T00:58:48.567Z,92583.00
2023-01-18T01:02:51.816Z,92591.00
2023-01-18T01:06:53.764Z,92591.00
2023-01-18T01:11:06.844Z,92592.00
2023-01-18T01:15:29.695Z,92596.00
2023-01-18T01:19:49.939Z,92592.00
2023-01-18T01:24:10.041Z,92586.00
2023-01-18T01:28:12.914Z,92598.00
2023-01-18T01:32:17.075Z,92602.00
2023-01-18T01:36:21.833Z,92609.00
2023-01-18T01:40:24.726Z,92606.00
2023-01-18T01:44:44.493Z,92614.00
2023-01-18T01:48:49.060Z,92630.00
2023-01-18T01:52:51.897Z,92621.00
2023-01-18T01:56:58.678Z,92638.00
2023-01-18T02:01:01.620Z,92631.00
2023-01-18T02:05:08.106Z,92642.00
2023-01-18T02:09:14.140Z,92653.00
2023-01-18T02:13:17.686Z,92661.00
2023-01-18T02:17:33.165Z,92668.00
2023-01-18T02:21:41.537Z,92674.00
2023-01-18T02:26:00.603Z,92676.00
2023-01-18T02:30:10.074Z,92686.00
2023-01-18T02:34:20.270Z,92692.00
2023-01-18T02:38:25.284Z,92695.00
2023-01-18T02:42:47.305Z,92695.00
2023-01-18T02:46:51.436Z,92698.00
2023-01-18T02:50:54.207Z,92700.00
2023-01-18T02:54:57.096Z,92700.00
2023-01-18T02:59:06.186Z,92705.00
2023-01-18T03:03:12.949Z,92698.00
2023-01-18T03:07:21.734Z,92696.00
2023-01-18T03:11:35.158Z,92700.00
2023-01-18T03:15:47.311Z,92705.00
2023-01-18T03:20:08.643Z,92710.00
2023-01-18T03:24:13.180Z,92718.00
2023-01-18T03:28:37.083Z,92727.00
2023-01-18T03:32:59.634Z,92729.00
2023-01-18T03:37:09.258Z,92733.00
2023-01-18T03:41:14.800Z,92725.00
2023-01-18T03:45:26.239Z,92719.00
2023-01-18T03:49:29.056Z,92728.00
2023-01-18T03:53:39.115Z,92734.00
2023-01-18T03:57:45.559Z,92733.00
2023-01-18T04:01:49.024Z,92730.00
2023-01-18T04:05:52.054Z,92733.00
2023-01-18T04:09:56.204Z,92742.00
2023-01-18T04:13:59.029Z,92733.00
2023-01-18T04:18:01.901Z,92740.00
2023-01-18T04:22:04.740Z,92736.00
2023-01-18T04:26:08.942Z,92723.00
2023-01-18T04:30:12.451Z,92717.00
2023-01-18T04:34:15.317Z,92725.00
2023-01-18T04:38:18.241Z,92731.00
2023-01-18T04:42:22.380Z,92740.00
2023-01-18T04:46:25.256Z,92740.00
2023-01-18T04:50:28.272Z,92750.00
2023-01-18T04:54:31.090Z,92757.00
2023-01-18T04:58:35.647Z,92755.00
2023-01-18T05:02:38.503Z,92750.00
2023-01-18T05:06:41.312Z,92764.00
2023-01-18T05:10:44.150Z,92758.00
2023-01-18T05:14:48.307Z,92761.00
2023-01-18T05:18:51.422Z,92768.00
2023-01-18T05:22:54.263Z,92770.00
2023-01-18T05:26:57.064Z,92780.00
2023-01-18T05:31:01.632Z,92773.00
2023-01-18T05:35:04.609Z,92784.00
2023-01-18T05:39:09.301Z,92774.00
2023-01-18T05:43:12.662Z,92784.00
2023-01-18T05:47:16.882Z,92781.00
2023-01-18T05:51:19.677Z,92776.00
2023-01-18T05:55:22.425Z,92794.00
2023-01-18T05:59:25.372Z,92787.00
2023-01-18T06:03:29.541Z,92802.00
2023-01-18T06:07:32.439Z,92807.00
2023-01-18T06:11:35.243Z,92810.00
2023-01-18T06:15:38.343Z,92797.00
2023-01-18T06:19:42.521Z,92808.00
2023-01-18T06:23:45.358Z,92808.00
2023-01-18T06:27:48.141Z,92816.00
2023-01-18T06:31:51.117Z,92816.00
2023-01-18T06:35:55.442Z,92824.00
2023-01-18T06:39:58.291Z,92830.00
2023-01-18T06:44:01.054Z,92835.00
2023-01-18T06:48:04.613Z,92839.00
2023-01-18T06:52:08.755Z,92847.00
2023-01-18T06:56:12.890Z,92851.00
2023-01-18T07:00:17.691Z,92848.00
2023-01-18T07:04:20.573Z,92876.00
2023-01-18T07:08:25.011Z,92865.00
2023-01-18T07:12:27.847Z,92873.00
2023-01-18T07:16:32.569Z,92861.00
2023-01-18T07:20:35.769Z,92879.00
2023-01-18T07:24:40.049Z,92883.00
2023-01-18T07:28:43.928Z,92881.00
2023-01-18T07:32:49.721Z,92884.00
2023-01-18T07:36:52.624Z,92881.00
2023-01-18T07:41:04.916Z,92890.00
2023-01-18T07:45:09.494Z,92889.00
2023-01-18T07:49:12.415Z,92899.00
2023-01-18T07:53:15.265Z,92891.00
2023-01-18T07:57:19.579Z,92905.00
2023-01-18T08:01:24.515Z,92916.00
2023-01-18T08:05:29.628Z,92932.00
2023-01-18T08:09:33.959Z,92933.00
2023-01-18T08:13:38.252Z,92933.00
2023-01-18T08:17:42.340Z,92944.00
2023-01-18T08:21:45.288Z,92944.00
2023-01-18T08:25:48.501Z,92961.00
2023-01-18T08:29:52.807Z,92966.00
2023-01-18T08:33:55.714Z,92963.00
2023-01-18T08:38:00.151Z,92970.00
2023-01-18T08:42:03.058Z,92991.00
2023-01-18T08:46:07.545Z,92996.00
2023-01-18T08:50:11.897Z,93000.00
2023-01-18T08:54:14.880Z,93019.00
2023-01-18T08:58:17.705Z,93023.00
2023-01-18T09:02:21.938Z,93034.00
2023-01-18T09:06:25.386Z,93045.00
2023-01-18T09:10:28.457Z,93048.00
2023-01-18T09:14:31.321Z,93053.00
2023-01-18T09:18:36.171Z,93065.00
2023-01-18T09:22:39.515Z,93059.00
2023-01-18T09:26:45.033Z,93063.00
2023-01-18T09:30:48.049Z,93084.00
2023-01-18T09:34:53.042Z,93105.00
2023-01-18T09:38:57.002Z,93110.00
2023-01-18T09:43:00.353Z,93126.00
2023-01-18T09:47:07.274Z,93125.00
2023-01-18T09:51:20.759Z,93139.00
2023-01-18T09:55:33.233Z,93143.00
2023-01-18T09:59:43.107Z,93146.00
2023-01-18T10:03:51.529Z,93165.00
2023-01-18T10:08:03.716Z,93180.00
2023-01-18T10:12:18.005Z,93170.00
2023-01-18T10:16:21.242Z,93187.00
2023-01-18T10:20:30.187Z,93184.00
2023-01-18T10:24:44.209Z,93197.00
2023-01-18T10:28:53.829Z,93198.00
2023-01-18T10:32:59.654Z,93209.00
2023-01-18T10:37:12.465Z,93206.00
2023-01-18T10:41:21.663Z,93225.00
2023-01-18T10:45:27.739Z,93227.00
2023-01-18T10:49:59.731Z,93233.00
2023-01-18T10:54:23.385Z,93238.00
2023-01-18T10:58:31.551Z,93247.00
2023-01-18T11:02:38.642Z,93243.00
2023-01-18T11:06:46.690Z,93253.00
2023-01-18T11:10:59.619Z,93268.00
2023-01-18T11:15:23.719Z,93254.00
2023-01-18T11:19:26.661Z,93280.00
2023-01-18T11:23:35.648Z,93282.00
2023-01-18T11:27:43.213Z,93278.00
2023-01-18T11:31:49.330Z,93288.00
2023-01-18T11:36:00.380Z,93297.00
2023-01-18T11:40:26.755Z,93301.00
2023-01-18T11:44:35.944Z,93307.00
2023-01-18T11:48:45.452Z,93315.00
2023-01-18T11:52:52.899Z,93310.00
2023-01-18T11:56:59.682Z,93323.00
2023-01-18T12:01:45.972Z,93320.00
2023-01-18T12:05:54.807Z,93326.00
2023-01-18T12:09:59.779Z,93327.00
2023-01-18T12:14:06.005Z,93343.00
2023-01-18T12:18:23.157Z,93353.00
2023-01-18T12:22:51.233Z,93361.00
2023-01-18T12:26:58.025Z,93371.00
2023-01-18T12:31:13.976Z,93389.00
2023-01-18T12:35:35.145Z,93412.00
2023-01-18T12:39:58.758Z,93429.00
2023-01-18T12:44:17.180Z,93442.00
2023-01-18T12:48:24.668Z,93457.00
2023-01-18T12:52:28.660Z,93464.00
2023-01-18T12:56:37.128Z,93462.00
2023-01-18T13:00:46.061Z,93469.00
2023-01-18T13:04:55.438Z,93471.00
2023-01-18T13:09:03.881Z,93487.00
2023-01-18T13:13:13.036Z,93481.00
2023-01-18T13:17:25.705Z,93491.00
2023-01-18T13:21:43.003Z,93480.00
2023-01-18T13:25:52.463Z,93486.00
2023-01-18T13:30:09.296Z,93491.00
2023-01-18T13:34:28.630Z,93495.00
2023-01-18T13:38:41.517Z,93498.00
2023-01-18T13:42:45.874Z,93513.00
2023-01-18T13:46:50.108Z,93515.00
2023-01-18T13:50:54.368Z,93513.00
2023-01-18T13:55:03.520Z,93530.00
2023-01-18T13:59:20.744Z,93526.00
2023-01-18T14:03:29.284Z,93543.00
2023-01-18T14:07:40.178Z,93542.00
2023-01-18T14:11:50.635Z,93559.00
2023-01-18T14:15:54.670Z,93570.00
2023-01-18T14:20:33.717Z,93575.00
2023-01-18T14:24:48.304Z,93592.00
2023-01-18T14:28:54.062Z,93595.00
2023-01-18T14:33:01.493Z,93586.00
2023-01-18T14:37:26.163Z,93599.00
2023-01-18T14:41:31.363Z,93588.00
2023-01-18T14:45:36.149Z,93593.00
2023-01-18T14:49:39.927Z,93597.00
2023-01-18T14:53:48.181Z,93604.00
2023-01-18T14:57:52.596Z,93616.00
2023-01-18T15:01:57.969Z,93620.00
2023-01-18T15:06:05.539Z,93626.00
2023-01-18T15:10:11.064Z,93622.00
2023-01-18T15:14:17.772Z,93634.00
2023-01-18T15:18:22.606Z,93633.00
2023-01-18T15:22:30.392Z,93640.00
2023-01-18T15:26:45.745Z,93658.00
2023-01-18T15:30:53.429Z,93660.00
2023-01-18T15:34:57.724Z,93672.00
2023-01-18T15:39:00.621Z,93678.00
2023-01-18T15:43:07.800Z,93679.00
2023-01-18T15:47:22.241Z,93682.00
2023-01-18T15:51:52.584Z,93687.00
2023-01-18T15:55:58.410Z,93712.00
2023-01-18T16:00:02.894Z,93724.00
2023-01-18T16:04:21.998Z,93731.00
2023-01-18T16:08:24.891Z,93730.00
2023-01-18T16:12:34.234Z,93743.00
2023-01-18T16:16:41.491Z,93745.00
2023-01-18T16:20:44.433Z,93751.00
2023-01-18T16:24:50.880Z,93761.00
2023-01-18T16:28:54.123Z,93758.00
2023-01-18T16:33:09.347Z,93784.00
2023-01-18T16:37:12.272Z,93791.00
2023-01-18T16:41:16.953Z,93787.00
2023-01-18T16:45:19.920Z,93794.00
2023-01-18T16:49:24.314Z,93800.00
2023-01-18T16:53:27.271Z,93806.00
2023-01-18T16:57:30.770Z,93816.00
2023-01-18T17:01:34.220Z,93828.00
2023-01-18T17:05:38.453Z,93844.00
2023-01-18T17:09:48.457Z,93843.00
2023-01-18T17:13:51.864Z,93861.00
2023-01-18T17:17:54.859Z,93854.00
2023-01-18T17:21:59.267Z,93860.00
2023-01-18T17:26:05.249Z,93879.00
2023-01-18T17:30:09.163Z,93881.00
2023-01-18T17:34:15.649Z,93891.00
2023-01-18T17:38:26.297Z,93857.00
2023-01-18T17:42:30.640Z,93900.00
2023-01-18T17:46:34.490Z,93907.00
2023-01-18T17:50:39.470Z,93911.00
2023-01-18T17:54:43.639Z,93915.00
2023-01-18T17:58:47.679Z,93920.00
2023-01-18T18:02:52.458Z,93928.00
2023-01-18T18:06:58.298Z,93933.00
2023-01-18T18:11:02.820Z,93953.00
2023-01-18T18:15:06.919Z,93962.00
2023-01-18T18:19:09.745Z,93963.00
2023-01-18T18:23:13.477Z,93956.00
2023-01-18T18:27:18.514Z,93963.00
2023-01-18T18:31:21.608Z,93968.00
2023-01-18T18:35:26.328Z,93981.00
2023-01-18T18:39:29.403Z,93989.00
2023-01-18T18:44:34.623Z,93991.00
2023-01-18T18:48:38.910Z,93990.00
2023-01-18T18:52:41.756Z,93998.00
2023-01-18T18:56:44.636Z,94004.00
2023-01-18T19:00:47.528Z,94007.00
2023-01-18T19:04:51.786Z,94016.00
2023-01-18T19:08:54.718Z,94012.00
2023-01-18T19:12:59.456Z,94038.00
2023-01-18T19:17:02.791Z,94039.00
2023-01-18T19:21:07.657Z,94047.00
2023-01-18T19:25:11.283Z,94053.00
2023-01-18T19:29:14.146Z,94042.00
2023-01-18T19:33:17.291Z,94038.00
2023-01-18T19:37:22.497Z,94054.00
2023-01-18T19:41:25.748Z,94070.00
2023-01-18T19:45:29.686Z,94059.00
2023-01-18T19:49:32.515Z,94075.00
2023-01-18T19:53:36.818Z,94077.00
2023-01-18T19:57:39.854Z,94077.00
2023-01-18T20:01:42.906Z,94073.00
2023-01-18T20:05:46.182Z,94092.00
2023-01-18T20:09:50.413Z,94094.00
2023-01-18T20:13:53.584Z,94089.00
2023-01-18T20:17:56.429Z,94114.00
2023-01-18T20:21:59.253Z,94126.00
2023-01-18T20:26:03.564Z,94118.00
2023-01-18T20:30:07.741Z,94136.00
2023-01-18T20:34:10.774Z,94138.00
2023-01-18T20:38:13.783Z,94138.00
2023-01-18T20:42:17.991Z,94152.00
2023-01-18T20:46:20.907Z,94158.00
2023-01-18T20:50:24.304Z,94160.00
2023-01-18T20:54:27.396Z,94172.00
2023-01-18T20:58:31.825Z,94182.00
2023-01-18T21:02:34.908Z,94189.00
2023-01-18T21:06:37.750Z,94194.00
2023-01-18T21:10:41.139Z,94196.00
2023-01-18T21:14:46.034Z,94185.00
2023-01-18T21:18:49.183Z,94208.00
2023-01-18T21:22:51.988Z,94193.00
2023-01-18T21:26:54.894Z,94192.00
2023-01-18T21:30:59.112Z,94201.00
2023-01-18T21:35:02.064Z,94204.00
2023-01-18T21:39:05.717Z,94214.00
2023-01-18T21:43:36.404Z,94206.00
2023-01-18T21:47:41.384Z,94218.00
2023-01-18T21:51:58.075Z,94237.00
2023-01-18T21:56:01.168Z,94238.00
2023-01-18T22:00:04.410Z,94245.00
2023-01-18T22:04:30.188Z,94246.00
2023-01-18T22:08:33.146Z,94254.00
2023-01-18T22:12:38.989Z,94246.00
2023-01-18T22:16:42.054Z,94239.00
2023-01-18T22:20:56.180Z,94249.00
2023-01-18T22:25:00.180Z,94252.00
2023-01-18T22:29:03.156Z,94245.00
2023-01-18T22:33:05.904Z,94259.00
2023-01-18T22:37:10.417Z,94253.00
2023-01-18T22:41:15.589Z,94252.00
2023-01-18T22:45:18.368Z,94257.00
2023-01-18T22:49:21.132Z,94260.00
2023-01-18T22:53:26.703Z,94261.00
2023-01-18T22:57:29.498Z,94274.00
2023-01-18T23:01:33.793Z,94281.00
2023-01-18T23:05:36.733Z,94290.00
2023-01-18T23:09:40.965Z,94286.00
2023-01-18T23:14:06.305Z,94288.00
2023-01-18T23:18:08.516Z,94302.00
2023-01-18T23:22:11.417Z,94307.00
2023-01-18T23:26:15.880Z,94301.00
2023-01-18T23:30:19.224Z,94307.00
2023-01-18T23:34:22.111Z,94302.00
2023-01-18T23:38:24.996Z,94307.00
2023-01-18T23:42:46.718Z,94308.00
2023-01-18T23:47:06.916Z,94313.00
2023-01-18T23:51:28.003Z,94317.00
2023-01-18T23:55:31.079Z,94319.00
2023-01-18T23:59:37.782Z,94325.00
